Aspermont, TX

3:00 PM CDT on July 22, 2014 (GMT -0500)
4T Ranch between Anson and Roby (KTXHAMLI2) Elev 1834 ft | 32.77 °N, 100.15 °W | Change Station

Current weather conditions updated 4 minutes ago

Partly Cloudy
Partly Cloudy
101.5 °F
Feels Like
N
3.7
Wind Variable Wind from ESE

Today is forecast to be nearly the same temperature as yesterday.

Today
High -- | Low -- °F
--% Chance of Precip.
Yesterday
High -- | Low -- °F
Precip. -- in
6:47 AM 8:47 PM
Waning Crescent, 15% visible
Pressure 30.14 in
Visibility 10.0 miles
Clouds Scattered Clouds 8000 ft
Mostly Cloudy 12000 ft
Dew Point 87 °F
Humidity 64%
Rainfall 0.00 in
Snow Depth Not available.
UV 6 out of 12
Pollen 5.50 out of 12
Air Quality Not available.
Flu Activity Sporadic
METAR KSWW 221955Z AUTO 05003KT 10SM SCT080 BKN120 35/15 A3014 RMK AO2 T03470151

More Conditions Fewer Conditions

Pressure 30.14 in
Visibility 10.0 miles
Clouds Scattered Clouds 8000 ft
Mostly Cloudy 12000 ft
Dew Point 87 °F
Humidity 64%
Rainfall 0.00 in
Snow Depth Not available.
UV 6 out of 12
Pollen 5.50 out of 12
Air Quality Not available.
Flu Activity Sporadic
METAR KSWW 221955Z AUTO 05003KT 10SM SCT080 BKN120 35/15 A3014 RMK AO2 T03470151

More Conditions Fewer Conditions

Nowcast | as of 2:28 PM CDT on July 22, 2014

Through 330 PM CDT...scattered showers and thunderstorms will develop along several outflow boundaries and slowly drift west southwest at less than 10 mph. Locally heavy rainfall...gusty wind up to 45 mph...and occasional lightning will be possible with the stronger storms. Most of the activity will remain south of a Morton...Abernathy...to Dickens line.

×

10-Day Weather Forecast

Almanac

Astronomy

Jul. 22, 2014 Rise Set
Actual Time 6:47 AM CDT 8:47 PM CDT
Civil Twilight 6:19 AM CDT 9:14 PM CDT
Nautical Twilight 5:46 AM CDT 9:48 PM CDT
Astronomical Twilight 5:10 AM CDT 10:24 PM CDT
Moon 3:19 AM CDT 5:27 PM CDT
Length of Visible Light 14h 54m
Length of Day
13h 59m
Tomorrow will be 1m 17s shorter.
Waning Crescent, 15% of the Moon is Illuminated
Today
Waning Crescent
Jul 26
New
Aug 3
First Quarter
Aug 10
Full
Aug 17
Last Quarter

Today's Extremes

State Highs State Lows

Community

WunderPhotos

Upload Photos

1,736,345 photos uploaded!

Nearby

Snow Depth

Station Depth Elevation
No new snow has been reported.

Earthquake Activity

City Distance Mag. Time & Date
No recent earthquake activity has been reported nearby.
Minimum magnitude displayed is 2.5.

Coastal Water Temperatures

Place Temperature
No Stations Reporting

Nearby Weather Stations

Station Location Temp. Heat Index Dew Point Humidity Wind Precip. Elev Updated Type
RAWS JAYTON TX, Girard, TX 96 °F 101 °F 68 °F 40% ESE  at  8 mph 0.00 in / hr 1904 ft 1:46 PM CDT MADIS
4T Ranch between Anson and Roby, Hamlin, TX 101.5 °F 141 °F 87 °F 64% ESE  at  3.7 mph - / hr 1834 ft 2:55 PM CDT Normal

Show More Stations Show Fewer Stations